createdAt,value
2022-10-18T00:00:48.027Z,10.68
2022-10-18T00:03:14.506Z,10.65
2022-10-18T00:05:40.949Z,10.64
2022-10-18T00:08:07.428Z,10.62
2022-10-18T00:10:33.968Z,10.60
2022-10-18T00:13:00.490Z,10.59
2022-10-18T00:15:27.162Z,10.61
2022-10-18T00:17:53.604Z,10.60
2022-10-18T00:20:20.072Z,10.51
2022-10-18T00:22:46.584Z,10.59
2022-10-18T00:25:15.183Z,10.55
2022-10-18T00:27:41.668Z,10.56
2022-10-18T00:30:08.767Z,10.55
2022-10-18T00:32:42.211Z,10.52
2022-10-18T00:35:09.515Z,10.53
2022-10-18T00:37:36.367Z,10.52
2022-10-18T00:40:03.053Z,10.51
2022-10-18T00:42:34.301Z,10.48
2022-10-18T00:45:16.689Z,10.45
2022-10-18T00:47:48.601Z,10.33
2022-10-18T00:50:15.395Z,10.40
2022-10-18T00:52:46.789Z,10.34
2022-10-18T00:55:13.555Z,10.34
2022-10-18T00:57:43.022Z,10.27
2022-10-18T01:00:10.882Z,10.28
2022-10-18T01:02:38.623Z,10.24
2022-10-18T01:05:06.013Z,10.17
2022-10-18T01:07:44.997Z,10.05
2022-10-18T01:10:22.176Z,10.10
2022-10-18T01:13:28.670Z,10.09
2022-10-18T01:16:03.704Z,9.94
2022-10-18T01:18:52.981Z,10.02
2022-10-18T01:21:31.619Z,10.00
2022-10-18T01:24:35.727Z,9.94
2022-10-18T01:27:27.358Z,9.90
2022-10-18T01:30:22.288Z,9.78
2022-10-18T01:32:52.706Z,9.73
2022-10-18T01:35:27.037Z,9.83
2022-10-18T01:37:56.040Z,9.77
2022-10-18T01:40:24.376Z,9.76
2022-10-18T01:42:51.032Z,9.74
2022-10-18T01:45:18.974Z,9.71
2022-10-18T01:47:47.433Z,9.68
2022-10-18T01:50:14.078Z,9.63
2022-10-18T01:52:50.279Z,9.61
2022-10-18T01:55:18.362Z,9.56
2022-10-18T01:58:22.568Z,9.54
2022-10-18T02:01:00.921Z,9.40
2022-10-18T02:03:29.342Z,9.48
2022-10-18T02:06:09.405Z,9.41
2022-10-18T02:08:58.587Z,9.29
2022-10-18T02:11:26.955Z,9.40
2022-10-18T02:13:56.453Z,9.36
2022-10-18T02:16:26.067Z,9.33
2022-10-18T02:19:15.814Z,9.23
2022-10-18T02:21:44.241Z,9.25
2022-10-18T02:24:14.001Z,9.24
2022-10-18T02:26:40.663Z,9.21
2022-10-18T02:29:08.434Z,9.14
2022-10-18T02:32:04.950Z,9.14
2022-10-18T02:34:43.130Z,9.03
2022-10-18T02:37:11.273Z,9.13
2022-10-18T02:39:42.467Z,9.08
2022-10-18T02:42:10.856Z,8.97
2022-10-18T02:44:38.248Z,9.08
2022-10-18T02:47:06.470Z,9.05
2022-10-18T02:49:32.995Z,9.01
2022-10-18T02:51:59.571Z,8.99
2022-10-18T02:54:26.004Z,8.99
2022-10-18T02:56:52.600Z,8.97
2022-10-18T02:59:19.045Z,8.95
2022-10-18T03:01:45.562Z,8.93
2022-10-18T03:04:12.083Z,8.92
2022-10-18T03:06:38.621Z,8.90
2022-10-18T03:09:06.020Z,8.89
2022-10-18T03:11:32.636Z,8.86
2022-10-18T03:13:59.116Z,8.85
2022-10-18T03:16:25.639Z,8.77
2022-10-18T03:18:52.119Z,8.81
2022-10-18T03:21:18.590Z,8.78
2022-10-18T03:23:45.010Z,8.77
2022-10-18T03:26:11.558Z,8.73
2022-10-18T03:28:38.050Z,8.74
2022-10-18T03:31:04.725Z,8.73
2022-10-18T03:33:32.154Z,8.71
2022-10-18T03:35:58.638Z,8.71
2022-10-18T03:38:25.131Z,8.69
2022-10-18T03:40:51.710Z,8.67
2022-10-18T03:43:18.152Z,8.64
2022-10-18T03:45:45.142Z,8.61
2022-10-18T03:48:11.712Z,8.61
2022-10-18T03:50:38.494Z,8.58
2022-10-18T03:53:05.087Z,8.58
2022-10-18T03:55:31.813Z,8.57
2022-10-18T03:57:58.345Z,8.55
2022-10-18T04:00:24.934Z,8.53
2022-10-18T04:02:54.920Z,8.51
2022-10-18T04:05:22.669Z,8.47
2022-10-18T04:07:49.193Z,8.49
2022-10-18T04:10:15.985Z,8.44
2022-10-18T04:12:42.424Z,8.48
2022-10-18T04:15:09.597Z,8.48
2022-10-18T04:17:36.082Z,8.47
2022-10-18T04:20:02.560Z,8.49
2022-10-18T04:22:28.988Z,8.52
2022-10-18T04:24:55.448Z,8.53
2022-10-18T04:27:22.130Z,8.52
2022-10-18T04:29:48.634Z,8.51
2022-10-18T04:32:15.155Z,8.49
2022-10-18T04:34:44.647Z,8.47
2022-10-18T04:37:11.205Z,8.46
2022-10-18T04:39:37.701Z,8.44
2022-10-18T04:42:04.151Z,8.43
2022-10-18T04:44:30.666Z,8.40
2022-10-18T04:46:57.087Z,8.37
2022-10-18T04:49:23.567Z,8.34
2022-10-18T04:51:50.021Z,8.33
2022-10-18T04:54:16.551Z,8.30
2022-10-18T04:56:42.984Z,8.26
2022-10-18T04:59:09.483Z,8.24
2022-10-18T05:01:35.929Z,8.23
2022-10-18T05:04:02.430Z,8.19
2022-10-18T05:06:28.895Z,8.17
2022-10-18T05:08:55.373Z,8.15
2022-10-18T05:11:21.940Z,8.14
2022-10-18T05:13:50.188Z,8.14
2022-10-18T05:16:17.780Z,8.09
2022-10-18T05:18:44.333Z,8.07
2022-10-18T05:21:10.840Z,8.10
2022-10-18T05:23:37.281Z,8.11
2022-10-18T05:26:07.331Z,8.11
2022-10-18T05:28:39.241Z,8.12
2022-10-18T05:31:08.901Z,8.11
2022-10-18T05:33:35.960Z,8.09
2022-10-18T05:36:02.818Z,8.07
2022-10-18T05:38:29.292Z,8.05
2022-10-18T05:40:55.787Z,8.03
2022-10-18T05:43:22.228Z,8.01
2022-10-18T05:45:51.734Z,7.97
2022-10-18T05:48:18.710Z,7.96
2022-10-18T05:50:45.468Z,7.94
2022-10-18T05:53:12.831Z,7.92
2022-10-18T05:56:01.997Z,7.90
2022-10-18T05:58:28.746Z,7.88
2022-10-18T06:00:58.964Z,7.84
2022-10-18T06:03:25.464Z,7.85
2022-10-18T06:05:51.906Z,7.83
2022-10-18T06:08:18.397Z,7.81
2022-10-18T06:10:44.835Z,7.81
2022-10-18T06:13:11.290Z,7.78
2022-10-18T06:15:37.709Z,7.78
2022-10-18T06:18:04.201Z,7.78
2022-10-18T06:20:30.640Z,7.78
2022-10-18T06:22:57.103Z,7.78
2022-10-18T06:25:23.544Z,7.78
2022-10-18T06:27:50.016Z,7.80
2022-10-18T06:30:16.518Z,7.79
2022-10-18T06:32:43.010Z,7.82
2022-10-18T06:35:09.639Z,7.81
2022-10-18T06:37:36.377Z,7.81
2022-10-18T06:40:03.055Z,7.81
2022-10-18T06:42:29.710Z,7.80
2022-10-18T06:44:56.217Z,7.78
2022-10-18T06:47:22.721Z,7.80
2022-10-18T06:49:49.400Z,7.76
2022-10-18T06:52:18.668Z,7.77
2022-10-18T06:54:45.502Z,7.77
2022-10-18T06:57:12.048Z,7.76
2022-10-18T06:59:38.540Z,7.75
2022-10-18T07:02:05.109Z,7.76
2022-10-18T07:04:31.607Z,7.75
2022-10-18T07:06:58.103Z,7.73
2022-10-18T07:09:24.588Z,7.69
2022-10-18T07:11:51.003Z,7.77
2022-10-18T07:14:17.427Z,7.78
2022-10-18T07:16:43.877Z,7.79
2022-10-18T07:19:10.394Z,7.82
2022-10-18T07:21:36.851Z,7.84
2022-10-18T07:24:03.665Z,7.87
2022-10-18T07:26:34.106Z,7.86
2022-10-18T07:29:10.199Z,7.92
2022-10-18T07:31:37.407Z,7.99
2022-10-18T07:34:05.481Z,7.99
2022-10-18T07:36:32.043Z,8.06
2022-10-18T07:38:58.686Z,8.11
2022-10-18T07:41:25.480Z,8.15
2022-10-18T07:43:53.079Z,8.19
2022-10-18T07:46:22.007Z,8.24
2022-10-18T07:48:48.656Z,8.31
2022-10-18T07:51:15.278Z,8.36
2022-10-18T07:53:41.745Z,8.46
2022-10-18T07:56:10.801Z,8.52
2022-10-18T07:58:37.450Z,8.60
2022-10-18T08:01:06.207Z,8.66
2022-10-18T08:03:33.308Z,8.74
2022-10-18T08:05:59.921Z,8.83
2022-10-18T08:08:27.080Z,8.89
2022-10-18T08:10:53.734Z,8.99
2022-10-18T08:13:20.641Z,9.08
2022-10-18T08:15:47.817Z,9.18
2022-10-18T08:18:14.480Z,9.27
2022-10-18T08:20:45.220Z,9.26
2022-10-18T08:23:12.120Z,9.47
2022-10-18T08:25:38.625Z,9.58
2022-10-18T08:28:07.075Z,9.57
2022-10-18T08:30:35.274Z,9.78
2022-10-18T08:33:02.756Z,9.88
2022-10-18T08:35:29.256Z,10.06
2022-10-18T08:37:55.698Z,10.22
2022-10-18T08:40:22.379Z,10.43
2022-10-18T08:43:21.445Z,10.75
2022-10-18T08:45:49.726Z,11.09
2022-10-18T08:48:39.737Z,11.68
2022-10-18T08:51:18.239Z,11.97
2022-10-18T08:53:58.245Z,12.40
2022-10-18T08:56:25.712Z,12.99
2022-10-18T08:58:52.171Z,13.46
2022-10-18T09:01:36.413Z,13.93
2022-10-18T09:04:33.456Z,14.47
2022-10-18T09:07:39.896Z,14.98
2022-10-18T09:10:50.394Z,15.34
2022-10-18T09:13:32.210Z,16.04
2022-10-18T09:16:00.750Z,16.35
2022-10-18T09:18:44.298Z,16.55
2022-10-18T09:21:20.905Z,16.62
2022-10-18T09:23:49.963Z,16.71
2022-10-18T09:26:24.245Z,16.75
2022-10-18T09:29:05.788Z,16.95
2022-10-18T09:31:49.332Z,17.16
2022-10-18T09:34:34.669Z,17.42
2022-10-18T09:37:02.026Z,17.72
2022-10-18T09:39:32.696Z,18.09
2022-10-18T09:42:04.895Z,18.39
2022-10-18T09:44:53.432Z,18.93
2022-10-18T09:47:25.291Z,19.19
2022-10-18T09:50:03.652Z,19.60
2022-10-18T09:52:39.898Z,19.96
2022-10-18T09:55:18.370Z,20.37
2022-10-18T09:57:53.414Z,20.76
2022-10-18T10:00:28.708Z,21.08
2022-10-18T10:02:55.330Z,21.26
2022-10-18T10:05:21.797Z,21.47
2022-10-18T10:07:49.407Z,21.74
2022-10-18T10:10:30.319Z,21.84
2022-10-18T10:13:15.177Z,21.86
2022-10-18T10:15:51.789Z,21.73
2022-10-18T10:18:24.575Z,21.46
2022-10-18T10:20:57.069Z,21.43
2022-10-18T10:23:23.477Z,21.29
2022-10-18T10:25:57.118Z,21.09
2022-10-18T10:28:28.577Z,20.99
2022-10-18T10:31:28.216Z,20.80
2022-10-18T10:34:05.101Z,20.55
2022-10-18T10:36:33.643Z,20.42
2022-10-18T10:39:03.044Z,20.18
2022-10-18T10:41:29.996Z,19.97
2022-10-18T10:43:57.129Z,19.82
2022-10-18T10:46:23.811Z,19.60
2022-10-18T10:49:09.567Z,19.27
2022-10-18T10:51:40.793Z,19.16
2022-10-18T10:54:18.987Z,18.93
2022-10-18T10:56:54.726Z,18.75
2022-10-18T10:59:24.727Z,18.61
2022-10-18T11:02:14.083Z,18.46
2022-10-18T11:04:42.186Z,18.35
2022-10-18T11:07:26.984Z,18.25
2022-10-18T11:10:25.951Z,18.05
2022-10-18T11:13:22.503Z,18.02
2022-10-18T11:16:12.077Z,17.91
2022-10-18T11:18:38.577Z,17.87
2022-10-18T11:21:16.532Z,17.69
2022-10-18T11:23:43.920Z,17.65
2022-10-18T11:26:13.394Z,17.65
2022-10-18T11:29:10.939Z,17.54
2022-10-18T11:31:52.617Z,17.47
2022-10-18T11:34:45.064Z,17.38
2022-10-18T11:37:39.660Z,17.35
2022-10-18T11:40:27.853Z,17.28
2022-10-18T11:43:38.998Z,17.23
2022-10-18T11:46:22.608Z,17.17
2022-10-18T11:49:10.780Z,17.12
2022-10-18T11:52:03.642Z,16.98
2022-10-18T11:54:57.470Z,17.04
2022-10-18T11:57:45.392Z,17.02
2022-10-18T12:00:21.131Z,17.02
2022-10-18T12:03:03.168Z,16.98
2022-10-18T12:05:31.715Z,16.98
2022-10-18T12:08:07.017Z,16.99
2022-10-18T12:10:45.691Z,17.02
2022-10-18T12:13:46.580Z,16.97
2022-10-18T12:16:14.146Z,17.12
2022-10-18T12:19:26.688Z,17.15
2022-10-18T12:22:02.479Z,17.19
2022-10-18T12:24:31.655Z,17.20
2022-10-18T12:27:01.272Z,17.19
2022-10-18T12:29:52.516Z,17.34
2022-10-18T12:32:26.945Z,17.35
2022-10-18T12:35:00.369Z,17.50
2022-10-18T12:37:45.476Z,17.68
2022-10-18T12:40:21.564Z,17.80
2022-10-18T12:42:50.800Z,17.91
2022-10-18T12:45:23.977Z,17.99
2022-10-18T12:47:51.197Z,18.05
2022-10-18T12:50:31.348Z,17.98
2022-10-18T12:53:22.424Z,18.11
2022-10-18T12:55:51.746Z,18.13
2022-10-18T12:58:23.665Z,18.15
2022-10-18T13:00:50.077Z,18.17
2022-10-18T13:03:16.480Z,18.18
2022-10-18T13:05:53.003Z,18.21
2022-10-18T13:08:29.371Z,18.20
2022-10-18T13:11:01.589Z,18.20
2022-10-18T13:13:39.354Z,18.20
2022-10-18T13:16:26.809Z,18.14
2022-10-18T13:19:01.307Z,18.19
2022-10-18T13:21:46.147Z,18.18
2022-10-18T13:24:31.088Z,18.16
2022-10-18T13:27:31.368Z,18.22
2022-10-18T13:30:20.560Z,18.25
2022-10-18T13:32:52.754Z,18.32
2022-10-18T13:35:40.897Z,18.39
2022-10-18T13:38:34.844Z,18.49
2022-10-18T13:43:53.582Z,18.67
2022-10-18T13:46:20.738Z,18.78
2022-10-18T13:48:55.000Z,18.88
2022-10-18T13:51:51.877Z,19.02
2022-10-18T13:54:37.073Z,19.19
2022-10-18T13:57:09.578Z,19.36
2022-10-18T13:59:54.021Z,19.53
2022-10-18T14:02:59.411Z,19.63
2022-10-18T14:05:41.705Z,19.84
2022-10-18T14:08:56.465Z,19.97
2022-10-18T14:11:32.040Z,20.13
2022-10-18T14:14:22.079Z,20.32
2022-10-18T14:16:48.510Z,20.50
2022-10-18T14:19:39.115Z,20.63
2022-10-18T14:22:20.910Z,20.75
2022-10-18T14:24:51.621Z,20.76
2022-10-18T14:27:21.195Z,20.86
2022-10-18T14:29:49.577Z,20.87
2022-10-18T14:32:26.759Z,20.82
2022-10-18T14:34:55.767Z,20.78
2022-10-18T14:37:32.948Z,20.68
2022-10-18T14:39:59.847Z,20.65
2022-10-18T14:42:27.772Z,20.59
2022-10-18T14:44:56.426Z,20.46
2022-10-18T14:47:28.610Z,20.31
2022-10-18T14:49:55.238Z,20.31
2022-10-18T14:52:35.477Z,20.20
2022-10-18T14:55:02.839Z,20.09
2022-10-18T14:57:36.181Z,19.91
2022-10-18T15:00:08.033Z,19.90
2022-10-18T15:02:38.705Z,19.85
2022-10-18T15:05:06.709Z,19.79
2022-10-18T15:07:33.981Z,19.71
2022-10-18T15:10:03.003Z,19.61
2022-10-18T15:12:37.009Z,19.47
2022-10-18T15:15:20.653Z,19.38
2022-10-18T15:17:49.240Z,19.43
2022-10-18T15:20:20.953Z,19.34
2022-10-18T15:22:47.690Z,19.27
2022-10-18T15:25:32.003Z,19.20
2022-10-18T15:27:59.591Z,19.09
2022-10-18T15:30:37.937Z,18.96
2022-10-18T15:33:07.139Z,18.90
2022-10-18T15:35:35.733Z,18.83
2022-10-18T15:38:13.371Z,18.71
2022-10-18T15:40:41.224Z,18.66
2022-10-18T15:43:22.695Z,18.56
2022-10-18T15:45:51.680Z,18.47
2022-10-18T15:48:23.238Z,18.32
2022-10-18T15:50:58.454Z,18.32
2022-10-18T15:53:30.939Z,18.25
2022-10-18T15:56:06.297Z,18.16
2022-10-18T15:58:48.078Z,18.08
2022-10-18T16:01:32.365Z,17.99
2022-10-18T16:04:00.823Z,17.90
2022-10-18T16:06:27.318Z,17.84
2022-10-18T16:08:53.967Z,17.73
2022-10-18T16:11:25.428Z,17.56
2022-10-18T16:13:55.260Z,17.57
2022-10-18T16:16:27.010Z,17.38
2022-10-18T16:18:53.774Z,17.40
2022-10-18T16:21:27.697Z,17.13
2022-10-18T16:23:54.458Z,17.20
2022-10-18T16:26:21.950Z,17.08
2022-10-18T16:28:49.591Z,16.98
2022-10-18T16:31:19.836Z,16.89
2022-10-18T16:33:47.043Z,16.77
2022-10-18T16:36:21.320Z,16.69
2022-10-18T16:38:49.470Z,16.51
2022-10-18T16:41:16.247Z,16.50
2022-10-18T16:43:44.618Z,16.41
2022-10-18T16:46:28.610Z,16.30
2022-10-18T16:48:55.501Z,16.22
2022-10-18T16:51:22.367Z,16.12
2022-10-18T16:53:49.232Z,15.99
2022-10-18T16:56:18.555Z,15.74
2022-10-18T16:58:46.426Z,15.80
2022-10-18T17:01:14.825Z,15.70
2022-10-18T17:03:41.394Z,15.56
2022-10-18T17:06:17.788Z,15.26
2022-10-18T17:08:45.179Z,15.33
2022-10-18T17:11:13.329Z,15.23
2022-10-18T17:13:40.326Z,15.13
2022-10-18T17:16:18.904Z,15.03
2022-10-18T17:18:45.402Z,14.94
2022-10-18T17:21:11.844Z,14.85
2022-10-18T17:23:38.326Z,14.79
2022-10-18T17:26:15.034Z,14.69
2022-10-18T17:28:56.742Z,14.62
2022-10-18T17:31:23.561Z,14.53
2022-10-18T17:33:50.072Z,14.47
2022-10-18T17:36:16.698Z,14.38
2022-10-18T17:38:43.132Z,14.33
2022-10-18T17:41:10.944Z,14.25
2022-10-18T17:46:12.562Z,14.15
2022-10-18T17:48:38.989Z,14.08
2022-10-18T17:51:13.464Z,14.02
2022-10-18T17:53:39.989Z,13.98
2022-10-18T17:56:06.941Z,13.90
2022-10-18T17:58:33.538Z,13.85
2022-10-18T18:01:14.220Z,13.81
2022-10-18T18:03:41.147Z,13.78
2022-10-18T18:06:21.117Z,13.72
2022-10-18T18:08:48.876Z,13.67
2022-10-18T18:11:16.964Z,13.60
2022-10-18T18:13:43.501Z,13.57
2022-10-18T18:16:21.518Z,13.51
2022-10-18T18:18:49.915Z,13.41
2022-10-18T18:21:17.048Z,13.37
2022-10-18T18:23:43.636Z,13.36
2022-10-18T18:26:10.326Z,13.27
2022-10-18T18:28:37.474Z,13.24
2022-10-18T18:31:08.333Z,13.18
2022-10-18T18:33:35.840Z,13.10
2022-10-18T18:36:03.896Z,12.96
2022-10-18T18:38:31.885Z,12.96
2022-10-18T18:41:07.407Z,12.88
2022-10-18T18:43:34.864Z,12.78
2022-10-18T18:46:01.773Z,12.77
2022-10-18T18:48:28.663Z,12.73
2022-10-18T18:50:55.379Z,12.67
2022-10-18T18:53:24.054Z,12.61
2022-10-18T18:55:52.381Z,12.53
2022-10-18T18:58:18.919Z,12.51
2022-10-18T19:00:45.674Z,12.48
2022-10-18T19:03:12.184Z,12.44
2022-10-18T19:05:38.716Z,12.39
2022-10-18T19:08:05.351Z,12.37
2022-10-18T19:10:31.959Z,12.33
2022-10-18T19:12:58.485Z,12.33
2022-10-18T19:15:25.011Z,12.32
2022-10-18T19:17:51.486Z,12.31
2022-10-18T19:20:18.130Z,12.33
2022-10-18T19:22:45.178Z,12.30
2022-10-18T19:25:11.754Z,12.29
2022-10-18T19:27:38.262Z,12.27
2022-10-18T19:30:07.751Z,12.26
2022-10-18T19:32:34.845Z,12.24
2022-10-18T19:35:01.384Z,12.20
2022-10-18T19:37:27.815Z,12.15
2022-10-18T19:39:54.289Z,12.12
2022-10-18T19:42:24.196Z,12.08
2022-10-18T19:44:53.000Z,12.04
2022-10-18T19:47:19.565Z,12.02
2022-10-18T19:49:46.334Z,11.98
2022-10-18T19:52:12.817Z,11.93
2022-10-18T19:54:39.593Z,11.95
2022-10-18T19:57:06.047Z,11.94
2022-10-18T19:59:32.537Z,11.92
2022-10-18T20:01:59.024Z,11.88
2022-10-18T20:04:25.533Z,11.87
2022-10-18T20:06:52.038Z,11.85
2022-10-18T20:09:20.622Z,11.83
2022-10-18T20:11:47.385Z,11.82
2022-10-18T20:14:13.848Z,11.78
2022-10-18T20:16:40.312Z,11.81
2022-10-18T20:19:07.608Z,11.80
2022-10-18T20:21:35.329Z,11.80
2022-10-18T20:24:03.094Z,11.78
2022-10-18T20:26:29.664Z,11.77
2022-10-18T20:28:57.913Z,11.75
2022-10-18T20:31:30.015Z,11.74
2022-10-18T20:34:02.654Z,11.73
2022-10-18T20:36:31.845Z,11.72
2022-10-18T20:38:59.296Z,11.71
2022-10-18T20:41:27.698Z,11.69
2022-10-18T20:43:56.681Z,11.58
2022-10-18T20:46:24.295Z,11.68
2022-10-18T20:48:52.545Z,11.54
2022-10-18T20:51:19.725Z,11.66
2022-10-18T20:53:46.295Z,11.62
2022-10-18T20:56:15.698Z,11.53
2022-10-18T20:58:44.195Z,11.62
2022-10-18T21:01:16.766Z,11.62
2022-10-18T21:03:46.403Z,11.61
2022-10-18T21:06:14.125Z,11.59
2022-10-18T21:08:41.392Z,11.57
2022-10-18T21:11:09.220Z,11.54
2022-10-18T21:13:35.886Z,11.54
2022-10-18T21:16:04.178Z,11.54
2022-10-18T21:18:32.720Z,11.52
2022-10-18T21:23:39.980Z,11.53
2022-10-18T21:26:06.962Z,11.41
2022-10-18T21:28:33.489Z,11.51
2022-10-18T21:31:10.238Z,11.49
2022-10-18T21:33:36.695Z,11.50
2022-10-18T21:36:03.750Z,11.51
2022-10-18T21:38:30.214Z,11.51
2022-10-18T21:40:56.754Z,11.49
2022-10-18T21:43:23.204Z,11.52
2022-10-18T21:45:49.721Z,11.53
2022-10-18T21:48:16.212Z,11.53
2022-10-18T21:50:42.741Z,11.54
2022-10-18T21:53:09.194Z,11.56
2022-10-18T21:55:35.969Z,11.56
2022-10-18T21:58:02.432Z,11.58
2022-10-18T22:00:28.909Z,11.57
2022-10-18T22:03:08.310Z,11.54
2022-10-18T22:05:34.839Z,11.56
2022-10-18T22:08:01.595Z,11.57
2022-10-18T22:10:28.276Z,11.56
2022-10-18T22:12:54.933Z,11.56
2022-10-18T22:15:21.561Z,11.56
2022-10-18T22:17:48.073Z,11.55
2022-10-18T22:20:14.666Z,11.52
2022-10-18T22:22:41.132Z,11.52
2022-10-18T22:25:08.065Z,11.50
2022-10-18T22:27:34.822Z,11.50
2022-10-18T22:30:01.640Z,11.49
2022-10-18T22:32:28.096Z,11.49
2022-10-18T22:34:54.577Z,11.49
2022-10-18T22:37:21.038Z,11.50
2022-10-18T22:39:47.503Z,11.51
2022-10-18T22:42:13.957Z,11.50
2022-10-18T22:44:40.433Z,11.48
2022-10-18T22:47:06.874Z,11.51
2022-10-18T22:49:33.329Z,11.50
2022-10-18T22:51:59.791Z,11.50
2022-10-18T22:54:26.256Z,11.51
2022-10-18T22:56:52.670Z,11.51
2022-10-18T22:59:19.301Z,11.51
2022-10-18T23:01:45.743Z,11.53
2022-10-18T23:04:12.167Z,11.52
2022-10-18T23:06:39.501Z,11.51
2022-10-18T23:09:08.654Z,11.39
2022-10-18T23:11:35.907Z,11.50
2022-10-18T23:14:03.460Z,11.50
2022-10-18T23:16:30.202Z,11.50
2022-10-18T23:18:57.983Z,11.50
2022-10-18T23:21:26.356Z,11.48
2022-10-18T23:23:53.883Z,11.50
2022-10-18T23:26:23.437Z,11.40
2022-10-18T23:28:51.680Z,11.38
2022-10-18T23:31:21.429Z,11.37
2022-10-18T23:33:49.457Z,11.49
2022-10-18T23:36:16.580Z,11.47
2022-10-18T23:38:43.321Z,11.46
2022-10-18T23:41:12.693Z,11.44
2022-10-18T23:43:39.293Z,11.41
2022-10-18T23:46:06.112Z,11.43
2022-10-18T23:48:32.745Z,11.42
2022-10-18T23:50:59.447Z,11.43
2022-10-18T23:53:26.251Z,11.42
2022-10-18T23:56:03.197Z,11.30
2022-10-18T23:58:31.927Z,11.41
